createdAt,value
2019-02-02T00:02:25.776Z,11.50
2019-02-02T00:04:54.354Z,10.80
2019-02-02T00:07:23.006Z,11.00
2019-02-02T00:09:51.597Z,11.30
2019-02-02T00:12:20.430Z,10.98
2019-02-02T00:14:49.020Z,11.20
2019-02-02T00:17:17.592Z,10.53
2019-02-02T00:19:46.200Z,12.50
2019-02-02T00:22:15.003Z,11.30
2019-02-02T00:24:43.646Z,11.22
2019-02-02T00:27:12.212Z,11.22
2019-02-02T00:29:41.039Z,11.15
2019-02-02T00:32:09.622Z,12.50
2019-02-02T00:34:38.192Z,11.60
2019-02-02T00:37:06.789Z,12.07
2019-02-02T00:39:35.421Z,12.65
2019-02-02T00:42:04.252Z,11.25
2019-02-02T00:44:32.822Z,10.78
2019-02-02T00:47:01.420Z,12.40
2019-02-02T00:49:29.989Z,26.57
2019-02-02T00:51:58.600Z,13.83
2019-02-02T00:54:27.182Z,12.75
2019-02-02T00:56:55.840Z,11.63
2019-02-02T00:59:24.536Z,12.00
2019-02-02T01:01:53.104Z,11.20
2019-02-02T01:04:21.671Z,11.60
2019-02-02T01:06:50.325Z,11.60
2019-02-02T01:09:26.379Z,11.68
2019-02-02T01:11:55.455Z,10.80
2019-02-02T01:14:24.036Z,11.83
2019-02-02T01:16:52.721Z,11.20
2019-02-02T01:19:21.298Z,10.98
2019-02-02T01:21:49.953Z,11.33
2019-02-02T01:24:18.558Z,11.38
2019-02-02T01:26:47.226Z,10.78
2019-02-02T01:29:15.884Z,10.72
2019-02-02T01:31:44.460Z,10.95
2019-02-02T01:34:13.037Z,11.80
2019-02-02T01:36:41.603Z,11.70
2019-02-02T01:39:10.192Z,10.75
2019-02-02T01:41:38.776Z,11.33
2019-02-02T01:44:07.763Z,12.55
2019-02-02T01:46:36.358Z,11.20
2019-02-02T01:49:05.228Z,11.43
2019-02-02T01:51:33.802Z,11.73
2019-02-02T01:54:02.397Z,11.15
2019-02-02T01:56:30.974Z,11.95
2019-02-02T01:58:59.583Z,12.00
2019-02-02T02:01:28.541Z,11.38
2019-02-02T02:03:57.146Z,11.43
2019-02-02T02:06:26.011Z,11.15
2019-02-02T02:08:54.597Z,11.95
2019-02-02T02:11:23.237Z,10.88
2019-02-02T02:13:52.062Z,11.48
2019-02-02T02:16:20.645Z,11.43
2019-02-02T02:18:49.212Z,11.25
2019-02-02T02:21:17.791Z,11.43
2019-02-02T02:23:46.596Z,11.30
2019-02-02T02:26:15.180Z,10.60
2019-02-02T02:28:43.985Z,11.18
2019-02-02T02:31:12.800Z,11.08
2019-02-02T02:33:41.372Z,11.00
2019-02-02T02:36:09.942Z,11.28
2019-02-02T02:38:38.531Z,10.25
2019-02-02T02:41:07.104Z,11.65
2019-02-02T02:43:35.667Z,11.40
2019-02-02T02:46:04.244Z,11.28
2019-02-02T02:48:32.815Z,11.25
2019-02-02T02:51:01.411Z,11.28
2019-02-02T02:53:29.978Z,11.00
2019-02-02T02:55:58.570Z,12.03
2019-02-02T02:58:27.141Z,11.03
2019-02-02T03:00:55.727Z,11.40
2019-02-02T03:03:24.360Z,11.53
2019-02-02T03:05:52.941Z,10.85
2019-02-02T03:08:21.595Z,11.80
2019-02-02T03:10:50.249Z,11.57
2019-02-02T03:13:18.838Z,11.10
2019-02-02T03:15:47.643Z,10.40
2019-02-02T03:18:16.295Z,11.70
2019-02-02T03:20:44.900Z,10.48
2019-02-02T03:23:13.482Z,11.20
2019-02-02T03:25:42.052Z,11.00
2019-02-02T03:28:10.647Z,11.65
2019-02-02T03:30:39.220Z,11.05
2019-02-02T03:33:07.814Z,10.30
2019-02-02T03:35:36.388Z,10.93
2019-02-02T03:38:05.387Z,10.58
2019-02-02T03:40:34.045Z,11.10
2019-02-02T03:43:02.740Z,10.85
2019-02-02T03:45:31.391Z,12.75
2019-02-02T03:47:59.966Z,12.28
2019-02-02T03:50:28.561Z,11.90
2019-02-02T03:52:57.141Z,11.73
2019-02-02T03:55:25.719Z,12.78
2019-02-02T03:57:54.316Z,12.23
2019-02-02T04:02:57.009Z,13.10
2019-02-02T04:05:27.249Z,13.40
2019-02-02T04:07:55.839Z,12.33
2019-02-02T04:10:24.432Z,13.40
2019-02-02T04:12:53.006Z,12.67
2019-02-02T04:15:21.740Z,14.00
2019-02-02T04:17:50.420Z,14.60
2019-02-02T04:20:22.398Z,13.97
2019-02-02T04:22:51.381Z,12.20
2019-02-02T04:25:21.067Z,13.87
2019-02-02T04:27:50.025Z,13.87
2019-02-02T04:30:20.917Z,14.10
2019-02-02T04:32:49.852Z,14.50
2019-02-02T04:35:18.498Z,14.73
2019-02-02T04:37:47.063Z,16.47
2019-02-02T04:40:15.660Z,13.97
2019-02-02T04:42:44.506Z,14.43
2019-02-02T04:45:13.658Z,13.88
2019-02-02T04:47:42.240Z,13.22
2019-02-02T04:50:12.783Z,14.60
2019-02-02T04:52:41.365Z,14.18
2019-02-02T04:55:10.634Z,16.65
2019-02-02T04:57:39.224Z,14.77
2019-02-02T05:00:34.325Z,14.93
2019-02-02T05:03:02.847Z,14.45
2019-02-02T05:05:31.487Z,15.10
2019-02-02T05:08:00.295Z,14.00
2019-02-02T05:10:28.864Z,13.95
2019-02-02T05:12:57.442Z,13.73
2019-02-02T05:15:26.070Z,14.93
2019-02-02T05:17:54.646Z,15.73
2019-02-02T05:20:23.198Z,16.23
2019-02-02T05:22:51.815Z,16.40
2019-02-02T05:25:20.561Z,16.27
2019-02-02T05:27:49.208Z,17.20
2019-02-02T05:30:23.392Z,16.10
2019-02-02T05:32:51.953Z,16.30
2019-02-02T05:35:20.843Z,16.00
2019-02-02T05:37:49.425Z,14.60
2019-02-02T05:40:18.655Z,17.60
2019-02-02T05:42:47.225Z,16.90
2019-02-02T05:45:17.225Z,16.63
2019-02-02T05:47:45.964Z,15.28
2019-02-02T05:50:16.626Z,15.80
2019-02-02T05:52:45.260Z,16.00
2019-02-02T05:55:14.593Z,15.70
2019-02-02T05:57:43.252Z,15.13
2019-02-02T06:00:16.555Z,14.90
2019-02-02T06:02:45.289Z,16.57
2019-02-02T06:05:13.876Z,15.57
2019-02-02T06:07:42.462Z,16.27
2019-02-02T06:10:12.859Z,14.83
2019-02-02T06:12:41.664Z,15.60
2019-02-02T06:15:10.577Z,18.37
2019-02-02T06:17:39.151Z,16.77
2019-02-02T06:20:09.347Z,17.30
2019-02-02T06:22:38.132Z,16.30
2019-02-02T06:25:08.156Z,13.80
2019-02-02T06:27:36.739Z,14.33
2019-02-02T06:30:07.436Z,14.90
2019-02-02T06:32:36.001Z,14.60
2019-02-02T06:35:05.340Z,24.50
2019-02-02T06:37:33.935Z,19.20
2019-02-02T06:40:02.538Z,16.07
2019-02-02T06:42:31.108Z,14.43
2019-02-02T06:44:59.713Z,14.83
2019-02-02T06:47:28.330Z,15.83
2019-02-02T06:49:57.046Z,14.37
2019-02-02T06:52:25.611Z,15.20
2019-02-02T06:54:54.193Z,13.80
2019-02-02T06:57:23.012Z,16.33
2019-02-02T06:59:51.612Z,15.00
2019-02-02T07:02:20.272Z,15.13
2019-02-02T07:04:48.832Z,16.80
2019-02-02T07:07:17.450Z,14.63
2019-02-02T07:09:46.044Z,13.60
2019-02-02T07:12:14.625Z,15.17
2019-02-02T07:14:43.203Z,14.80
2019-02-02T07:17:11.809Z,16.40
2019-02-02T07:19:40.499Z,17.13
2019-02-02T07:22:09.085Z,18.23
2019-02-02T07:24:37.660Z,17.60
2019-02-02T07:27:06.264Z,16.17
2019-02-02T07:29:34.926Z,16.33
2019-02-02T07:32:03.592Z,18.37
2019-02-02T07:34:32.175Z,18.10
2019-02-02T07:37:00.768Z,16.97
2019-02-02T07:39:29.340Z,17.87
2019-02-02T07:41:57.980Z,19.00
2019-02-02T07:44:26.836Z,17.67
2019-02-02T07:46:55.516Z,18.13
2019-02-02T07:49:24.596Z,18.67
2019-02-02T07:51:53.179Z,18.05
2019-02-02T07:54:21.967Z,18.17
2019-02-02T07:56:50.499Z,18.32
2019-02-02T07:59:19.108Z,17.40
2019-02-02T08:01:47.962Z,18.00
2019-02-02T08:04:16.773Z,18.85
2019-02-02T08:06:46.325Z,18.07
2019-02-02T08:09:15.091Z,19.00
2019-02-02T08:11:43.896Z,17.70
2019-02-02T08:14:12.779Z,18.70
2019-02-02T08:16:41.871Z,19.20
2019-02-02T08:19:11.448Z,17.52
2019-02-02T08:21:44.031Z,18.50
2019-02-02T08:24:13.972Z,17.17
2019-02-02T08:26:47.257Z,18.53
2019-02-02T08:29:16.833Z,18.70
2019-02-02T08:31:46.091Z,17.80
2019-02-02T08:34:15.767Z,18.00
2019-02-02T08:36:45.066Z,19.03
2019-02-02T08:39:13.632Z,20.07
2019-02-02T08:41:42.263Z,20.13
2019-02-02T08:44:10.853Z,21.60
2019-02-02T08:46:39.467Z,20.40
2019-02-02T08:49:08.088Z,21.90
2019-02-02T08:51:36.730Z,20.15
2019-02-02T08:54:05.377Z,21.68
2019-02-02T08:56:34.491Z,20.27
2019-02-02T08:59:03.056Z,21.30
2019-02-02T09:01:31.640Z,20.50
2019-02-02T09:04:00.273Z,21.27
2019-02-02T09:06:38.505Z,21.60
2019-02-02T09:08:59.139Z,19.57
2019-02-02T09:11:27.745Z,19.62
2019-02-02T09:13:56.371Z,19.53
2019-02-02T09:16:25.190Z,19.63
2019-02-02T09:18:54.133Z,19.50
2019-02-02T09:21:23.344Z,19.77
2019-02-02T09:23:52.064Z,18.10
2019-02-02T09:26:20.696Z,19.82
2019-02-02T09:28:49.379Z,20.20
2019-02-02T09:31:18.094Z,19.17
2019-02-02T09:33:46.953Z,21.37
2019-02-02T09:36:16.954Z,20.37
2019-02-02T09:38:45.749Z,18.90
2019-02-02T09:41:14.339Z,18.23
2019-02-02T09:43:43.251Z,18.40
2019-02-02T09:46:13.640Z,17.67
2019-02-02T09:48:42.447Z,18.53
2019-02-02T09:51:11.202Z,19.90
2019-02-02T09:53:39.937Z,17.07
2019-02-02T09:56:08.752Z,16.77
2019-02-02T09:58:37.415Z,16.20
2019-02-02T10:01:07.015Z,17.43
2019-02-02T10:03:35.605Z,16.10
2019-02-02T10:06:04.263Z,16.57
2019-02-02T10:08:32.882Z,16.80
2019-02-02T10:11:01.552Z,14.93
2019-02-02T10:13:30.230Z,15.70
2019-02-02T10:15:59.046Z,15.40
2019-02-02T10:21:33.399Z,14.20
2019-02-02T10:24:02.051Z,14.43
2019-02-02T10:26:30.852Z,14.03
2019-02-02T10:28:59.500Z,13.93
2019-02-02T10:31:38.864Z,13.87
2019-02-02T10:33:58.431Z,13.87
2019-02-02T10:36:27.118Z,12.00
2019-02-02T10:38:55.720Z,12.90
2019-02-02T10:41:24.482Z,10.90
2019-02-02T10:43:53.112Z,10.17
2019-02-02T10:46:21.801Z,11.00
2019-02-02T10:48:50.414Z,11.10
2019-02-02T10:51:19.223Z,10.73
2019-02-02T10:53:48.876Z,13.03
2019-02-02T10:56:17.521Z,13.80
2019-02-02T10:58:46.362Z,11.67
2019-02-02T11:01:15.065Z,12.90
2019-02-02T11:03:43.763Z,11.63
2019-02-02T11:06:12.435Z,13.90
2019-02-02T11:08:41.224Z,12.57
2019-02-02T11:11:10.023Z,12.90
2019-02-02T11:13:38.763Z,12.47
2019-02-02T11:16:08.365Z,12.75
2019-02-02T11:18:37.448Z,11.50
2019-02-02T11:21:06.231Z,12.43
2019-02-02T11:23:34.888Z,12.83
2019-02-02T11:26:03.626Z,12.27
2019-02-02T11:28:32.735Z,13.50
2019-02-02T11:31:01.451Z,12.90
2019-02-02T11:33:30.143Z,11.80
2019-02-02T11:35:58.995Z,10.93
2019-02-02T11:38:27.835Z,11.93
2019-02-02T11:40:56.420Z,11.73
2019-02-02T11:43:24.993Z,11.60
2019-02-02T11:45:53.561Z,10.60
2019-02-02T11:48:22.250Z,10.63
2019-02-02T11:50:50.843Z,12.37
2019-02-02T11:53:19.806Z,11.47
2019-02-02T11:55:48.347Z,13.47
2019-02-02T11:58:17.791Z,12.67
2019-02-02T12:00:46.403Z,12.67
2019-02-02T12:03:14.995Z,12.00
2019-02-02T12:05:43.674Z,12.30
2019-02-02T12:08:13.099Z,11.83
2019-02-02T12:10:41.666Z,12.07
2019-02-02T12:13:10.353Z,11.30
2019-02-02T12:15:38.968Z,11.63
2019-02-02T12:18:07.918Z,12.97
2019-02-02T12:20:36.587Z,12.43
2019-02-02T12:23:05.454Z,13.23
2019-02-02T12:25:34.342Z,13.40
2019-02-02T12:28:03.179Z,13.30
2019-02-02T12:30:33.431Z,13.60
2019-02-02T12:33:04.818Z,14.10
2019-02-02T12:35:33.581Z,13.80
2019-02-02T12:38:02.469Z,13.97
2019-02-02T12:40:31.470Z,13.90
2019-02-02T12:43:00.363Z,12.83
2019-02-02T12:45:54.137Z,10.67
2019-02-02T12:48:23.691Z,11.40
2019-02-02T12:50:52.753Z,9.47
2019-02-02T12:53:21.366Z,8.40
2019-02-02T12:55:50.413Z,13.73
2019-02-02T12:58:19.071Z,8.70
2019-02-02T13:00:47.660Z,7.77
2019-02-02T13:03:16.497Z,9.63
2019-02-02T13:05:45.264Z,15.10
2019-02-02T13:08:14.185Z,17.03
2019-02-02T13:10:42.810Z,14.43
2019-02-02T13:13:11.445Z,15.60
2019-02-02T13:15:40.223Z,20.93
2019-02-02T13:18:08.932Z,17.93
2019-02-02T13:20:37.658Z,16.63
2019-02-02T13:23:06.456Z,14.20
2019-02-02T13:25:35.011Z,14.43
2019-02-02T13:28:03.646Z,14.47
2019-02-02T13:30:33.933Z,16.57
2019-02-02T13:33:02.592Z,15.80
2019-02-02T13:35:32.860Z,15.60
2019-02-02T13:38:01.475Z,15.00
2019-02-02T13:40:30.036Z,15.17
2019-02-02T13:42:58.741Z,14.70
2019-02-02T13:45:27.296Z,13.40
2019-02-02T13:47:56.518Z,12.30
2019-02-02T13:50:25.206Z,12.40
2019-02-02T13:52:54.159Z,12.50
2019-02-02T13:55:22.701Z,12.57
2019-02-02T13:57:51.319Z,12.27
2019-02-02T14:00:22.269Z,11.50
2019-02-02T14:03:02.092Z,12.87
2019-02-02T14:05:21.930Z,12.43
2019-02-02T14:07:50.503Z,12.40
2019-02-02T14:10:21.328Z,10.80
2019-02-02T14:12:50.297Z,11.63
2019-02-02T14:15:19.083Z,12.53
2019-02-02T14:17:48.273Z,11.33
2019-02-02T14:20:16.939Z,11.53
2019-02-02T14:22:45.791Z,12.30
2019-02-02T14:25:14.618Z,12.60
2019-02-02T14:27:43.541Z,11.83
2019-02-02T14:30:22.789Z,10.70
2019-02-02T14:32:54.427Z,10.87
2019-02-02T14:35:29.618Z,11.27
2019-02-02T14:37:58.188Z,11.70
2019-02-02T14:40:26.749Z,11.77
2019-02-02T14:42:55.328Z,11.30
2019-02-02T14:45:27.301Z,11.93
2019-02-02T14:47:55.907Z,12.10
2019-02-02T14:50:25.070Z,12.50
2019-02-02T14:52:55.036Z,13.83
2019-02-02T14:55:25.504Z,10.43
2019-02-02T14:57:54.453Z,9.60
2019-02-02T15:00:25.054Z,9.80
2019-02-02T15:02:53.803Z,10.30
2019-02-02T15:05:22.569Z,10.47
2019-02-02T15:07:51.239Z,10.63
2019-02-02T15:10:20.778Z,11.23
2019-02-02T15:12:49.537Z,11.20
2019-02-02T15:15:18.700Z,14.83
2019-02-02T15:17:47.376Z,12.77
2019-02-02T15:20:28.170Z,12.03
2019-02-02T15:22:56.700Z,13.23
2019-02-02T15:25:30.903Z,13.90
2019-02-02T15:27:59.530Z,14.67
2019-02-02T15:30:28.946Z,15.80
2019-02-02T15:32:57.635Z,17.53
2019-02-02T15:35:26.292Z,17.13
2019-02-02T15:37:54.940Z,16.30
2019-02-02T15:40:23.585Z,17.07
2019-02-02T15:42:52.146Z,17.90
2019-02-02T15:45:22.141Z,17.50
2019-02-02T15:47:50.813Z,17.70
2019-02-02T15:50:19.453Z,18.03
2019-02-02T15:52:48.128Z,17.80
2019-02-02T15:55:21.434Z,18.57
2019-02-02T15:57:50.107Z,18.27
2019-02-02T16:00:38.079Z,18.90
2019-02-02T16:03:07.080Z,20.50
2019-02-02T16:05:36.572Z,19.13
2019-02-02T16:08:16.390Z,21.20
2019-02-02T16:10:45.006Z,22.57
2019-02-02T16:13:13.825Z,21.53
2019-02-02T16:15:42.445Z,19.60
2019-02-02T16:18:11.014Z,22.00
2019-02-02T16:20:42.265Z,21.97
2019-02-02T16:23:11.149Z,21.63
2019-02-02T16:25:39.731Z,23.83
2019-02-02T16:28:08.483Z,23.83
2019-02-02T16:30:37.135Z,22.98
2019-02-02T16:33:06.199Z,24.80
2019-02-02T16:35:34.778Z,23.77
2019-02-02T16:38:03.367Z,23.70
2019-02-02T16:40:32.144Z,23.62
2019-02-02T16:43:00.757Z,25.35
2019-02-02T16:45:30.302Z,25.77
2019-02-02T16:47:59.237Z,25.65
2019-02-02T16:50:28.079Z,26.85
2019-02-02T16:52:56.644Z,24.00
2019-02-02T16:55:25.426Z,25.75
2019-02-02T16:57:54.227Z,25.70
2019-02-02T17:00:27.808Z,25.60
2019-02-02T17:02:56.432Z,25.77
2019-02-02T17:05:25.131Z,25.05
2019-02-02T17:07:54.859Z,22.60
2019-02-02T17:10:25.600Z,20.45
2019-02-02T17:12:54.248Z,21.55
2019-02-02T17:15:23.048Z,19.57
2019-02-02T17:17:51.965Z,19.73
2019-02-02T17:20:25.791Z,15.35
2019-02-02T17:22:54.401Z,17.63
2019-02-02T17:25:23.298Z,18.50
2019-02-02T17:27:52.037Z,18.27
2019-02-02T17:30:21.909Z,18.25
2019-02-02T17:32:51.750Z,20.17
2019-02-02T17:35:20.431Z,20.88
2019-02-02T17:37:49.082Z,19.17
2019-02-02T17:40:19.885Z,19.87
2019-02-02T17:42:48.458Z,19.27
2019-02-02T17:45:17.937Z,19.87
2019-02-02T17:47:46.639Z,19.55
2019-02-02T17:50:17.083Z,21.30
2019-02-02T17:52:45.742Z,21.77
2019-02-02T17:55:14.534Z,21.10
2019-02-02T17:57:43.199Z,20.80
2019-02-02T18:00:21.903Z,20.90
2019-02-02T18:02:50.484Z,21.77
2019-02-02T18:05:19.099Z,20.17
2019-02-02T18:07:47.678Z,19.25
2019-02-02T18:10:16.506Z,21.82
2019-02-02T18:12:45.375Z,23.77
2019-02-02T18:15:14.271Z,20.68
2019-02-02T18:17:43.026Z,21.30
2019-02-02T18:20:13.209Z,21.15
2019-02-02T18:22:42.059Z,21.52
2019-02-02T18:25:11.882Z,22.37
2019-02-02T18:27:40.850Z,22.22
2019-02-02T18:30:15.585Z,22.98
2019-02-02T18:32:44.207Z,21.65
2019-02-02T18:35:14.481Z,23.80
2019-02-02T18:37:43.103Z,20.70
2019-02-02T18:40:13.084Z,18.75
2019-02-02T18:42:41.692Z,18.82
2019-02-02T18:45:12.553Z,19.73
2019-02-02T18:47:41.192Z,22.90
2019-02-02T18:50:11.927Z,20.27
2019-02-02T18:52:40.587Z,20.12
2019-02-02T18:55:11.984Z,20.95
2019-02-02T18:57:40.586Z,21.40
2019-02-02T19:00:12.940Z,18.85
2019-02-02T19:02:42.554Z,23.70
2019-02-02T19:05:11.276Z,20.55
2019-02-02T19:07:40.126Z,19.48
2019-02-02T19:10:12.157Z,19.25
2019-02-02T19:12:40.824Z,17.85
2019-02-02T19:15:09.843Z,18.82
2019-02-02T19:17:38.430Z,19.20
2019-02-02T19:20:09.193Z,18.32
2019-02-02T19:22:37.802Z,19.70
2019-02-02T19:25:07.161Z,18.35
2019-02-02T19:27:35.750Z,19.45
2019-02-02T19:30:06.326Z,19.55
2019-02-02T19:32:35.133Z,21.25
2019-02-02T19:35:15.254Z,19.67
2019-02-02T19:37:34.519Z,19.15
2019-02-02T19:40:03.243Z,19.32
2019-02-02T19:42:31.835Z,20.92
2019-02-02T19:45:00.416Z,21.73
2019-02-02T19:47:29.040Z,20.95
2019-02-02T19:49:57.604Z,20.30
2019-02-02T19:52:26.197Z,19.80
2019-02-02T19:54:54.762Z,21.70
2019-02-02T19:57:23.366Z,21.45
2019-02-02T19:59:51.943Z,22.30
2019-02-02T20:02:20.535Z,20.23
2019-02-02T20:04:49.141Z,18.70
2019-02-02T20:07:17.728Z,20.10
2019-02-02T20:09:46.339Z,20.57
2019-02-02T20:12:14.969Z,19.52
2019-02-02T20:14:43.638Z,20.02
2019-02-02T20:17:14.571Z,20.57
2019-02-02T20:19:42.686Z,24.85
2019-02-02T20:22:11.278Z,24.10
2019-02-02T20:24:39.898Z,26.52
2019-02-02T20:27:08.480Z,26.40
2019-02-02T20:29:37.069Z,28.60
2019-02-02T20:32:05.687Z,29.55
2019-02-02T20:34:34.248Z,29.65
2019-02-02T20:37:02.843Z,26.65
2019-02-02T20:39:31.438Z,28.02
2019-02-02T20:42:00.094Z,29.95
2019-02-02T20:44:28.670Z,30.62
2019-02-02T20:46:57.265Z,31.17
2019-02-02T20:49:25.840Z,29.65
2019-02-02T20:51:54.462Z,30.55
2019-02-02T20:54:23.375Z,28.60
2019-02-02T20:56:52.206Z,30.23
2019-02-02T20:59:21.995Z,28.62
2019-02-02T21:01:50.639Z,32.25
2019-02-02T21:04:19.225Z,28.87
2019-02-02T21:06:48.027Z,28.77
2019-02-02T21:09:16.670Z,30.05
2019-02-02T21:11:56.398Z,31.27
2019-02-02T21:14:15.935Z,33.15
2019-02-02T21:16:44.606Z,33.65
2019-02-02T21:19:13.189Z,32.65
2019-02-02T21:21:42.644Z,36.48
2019-02-02T21:24:11.278Z,36.25
2019-02-02T21:26:41.330Z,34.40
2019-02-02T21:29:09.964Z,36.95
2019-02-02T21:31:38.638Z,36.90
2019-02-02T21:34:07.333Z,39.40
2019-02-02T21:36:35.909Z,39.05
2019-02-02T21:39:07.152Z,41.75
2019-02-02T21:41:35.750Z,41.83
2019-02-02T21:44:04.355Z,47.53
2019-02-02T21:46:33.153Z,49.18
2019-02-02T21:49:02.102Z,50.40
2019-02-02T21:51:30.806Z,45.88
2019-02-02T21:53:59.382Z,47.30
2019-02-02T21:56:27.973Z,48.08
2019-02-02T21:58:56.734Z,47.88
2019-02-02T22:01:25.321Z,49.00
2019-02-02T22:03:53.919Z,49.53
2019-02-02T22:06:22.546Z,47.40
2019-02-02T22:08:51.123Z,67.40
2019-02-02T22:11:19.750Z,57.27
2019-02-02T22:13:48.367Z,48.70
2019-02-02T22:16:17.050Z,47.17
2019-02-02T22:18:45.624Z,49.42
2019-02-02T22:21:14.441Z,47.88
2019-02-02T22:23:43.052Z,46.75
2019-02-02T22:26:11.755Z,47.05
2019-02-02T22:28:40.292Z,47.17
2019-02-02T22:31:09.217Z,48.15
2019-02-02T22:33:37.818Z,45.63
2019-02-02T22:36:06.712Z,50.03
2019-02-02T22:38:35.321Z,50.98
2019-02-02T22:41:06.887Z,48.42
2019-02-02T22:43:34.396Z,50.98
2019-02-02T22:46:03.147Z,51.20
2019-02-02T22:48:31.721Z,51.42
2019-02-02T22:51:00.294Z,50.38
2019-02-02T22:53:28.907Z,50.15
2019-02-02T22:55:57.713Z,48.92
2019-02-02T22:58:26.658Z,48.63
2019-02-02T23:01:27.728Z,48.33
2019-02-02T23:04:14.520Z,49.85
2019-02-02T23:07:33.560Z,51.37
2019-02-02T23:10:51.587Z,53.05
2019-02-02T23:14:06.160Z,51.35
2019-02-02T23:16:35.373Z,54.70
2019-02-02T23:19:04.046Z,55.55
2019-02-02T23:21:32.848Z,55.43
2019-02-02T23:24:01.524Z,58.45
2019-02-02T23:26:30.254Z,57.00
2019-02-02T23:28:58.826Z,58.55
2019-02-02T23:31:27.424Z,62.93
2019-02-02T23:33:56.003Z,61.30
2019-02-02T23:36:24.675Z,65.92
2019-02-02T23:38:53.318Z,60.45
2019-02-02T23:41:22.742Z,62.60
2019-02-02T23:43:51.569Z,68.80
2019-02-02T23:46:20.128Z,60.52
2019-02-02T23:48:48.817Z,66.80
2019-02-02T23:51:17.360Z,64.80
2019-02-02T23:53:45.956Z,61.20
2019-02-02T23:56:14.559Z,60.38
2019-02-02T23:58:43.413Z,61.05
